createdAt,value
2019-06-26T00:01:38.844Z,25.20
2019-06-26T00:04:05.325Z,25.20
2019-06-26T00:06:31.772Z,25.20
2019-06-26T00:08:58.164Z,25.20
2019-06-26T00:11:24.544Z,25.20
2019-06-26T00:13:50.975Z,25.10
2019-06-26T00:16:17.452Z,25.10
2019-06-26T00:18:43.965Z,25.10
2019-06-26T00:21:10.410Z,25.10
2019-06-26T00:23:37.194Z,25.20
2019-06-26T00:26:03.734Z,25.20
2019-06-26T00:28:30.088Z,25.10
2019-06-26T00:30:56.461Z,25.10
2019-06-26T00:33:22.791Z,25.20
2019-06-26T00:35:49.425Z,25.20
2019-06-26T00:38:15.867Z,25.20
2019-06-26T00:40:42.368Z,25.00
2019-06-26T00:43:11.117Z,25.00
2019-06-26T00:45:38.767Z,24.90
2019-06-26T00:48:05.319Z,24.90
2019-06-26T00:50:32.605Z,24.80
2019-06-26T00:52:59.054Z,24.80
2019-06-26T00:55:25.658Z,24.80
2019-06-26T00:57:52.147Z,24.90
2019-06-26T01:00:22.295Z,24.90
2019-06-26T01:02:48.673Z,24.90
2019-06-26T01:05:15.819Z,25.00
2019-06-26T01:07:42.126Z,24.80
2019-06-26T01:10:11.083Z,24.90
2019-06-26T01:12:37.740Z,24.90
2019-06-26T01:15:05.137Z,24.80
2019-06-26T01:17:32.745Z,24.70
2019-06-26T01:19:59.213Z,24.60
2019-06-26T01:22:25.820Z,24.60
2019-06-26T01:24:52.553Z,24.70
2019-06-26T01:27:19.623Z,24.50
2019-06-26T01:29:46.124Z,24.60
2019-06-26T01:32:12.728Z,24.60
2019-06-26T01:34:39.176Z,24.60
2019-06-26T01:37:05.610Z,24.60
2019-06-26T01:39:32.062Z,24.60
2019-06-26T01:41:58.402Z,24.60
2019-06-26T01:44:25.153Z,24.50
2019-06-26T01:46:51.844Z,24.50
2019-06-26T01:49:18.220Z,24.50
2019-06-26T01:51:44.600Z,24.50
2019-06-26T01:54:10.930Z,24.50
2019-06-26T01:56:37.244Z,24.50
2019-06-26T01:59:03.696Z,24.50
2019-06-26T02:01:30.130Z,24.20
2019-06-26T02:03:56.429Z,24.40
2019-06-26T02:06:24.188Z,24.10
2019-06-26T02:08:50.599Z,24.10
2019-06-26T02:11:18.407Z,24.20
2019-06-26T02:13:44.964Z,24.20
2019-06-26T02:16:11.501Z,24.20
2019-06-26T02:18:40.080Z,24.10
2019-06-26T02:21:06.583Z,24.00
2019-06-26T02:23:33.158Z,23.90
2019-06-26T02:26:00.970Z,24.00
2019-06-26T02:28:27.444Z,23.90
2019-06-26T02:30:53.895Z,23.90
2019-06-26T02:33:20.800Z,23.80
2019-06-26T02:35:47.286Z,23.70
2019-06-26T02:38:15.499Z,23.80
2019-06-26T02:40:41.887Z,23.90
2019-06-26T02:43:08.514Z,23.90
2019-06-26T02:45:34.911Z,23.90
2019-06-26T02:48:01.298Z,23.90
2019-06-26T02:50:27.691Z,24.00
2019-06-26T02:52:53.973Z,23.90
2019-06-26T02:55:20.448Z,23.70
2019-06-26T02:57:47.161Z,23.70
2019-06-26T03:00:13.952Z,23.80
2019-06-26T03:02:40.498Z,23.80
2019-06-26T03:05:07.271Z,23.80
2019-06-26T03:07:33.805Z,23.70
2019-06-26T03:10:00.231Z,23.80
2019-06-26T03:12:26.683Z,23.80
2019-06-26T03:15:07.852Z,23.80
2019-06-26T03:17:21.640Z,23.70
2019-06-26T03:19:49.257Z,23.40
2019-06-26T03:22:17.783Z,23.40
2019-06-26T03:24:44.354Z,23.10
2019-06-26T03:27:11.008Z,23.50
2019-06-26T03:29:39.133Z,23.30
2019-06-26T03:32:05.551Z,23.50
2019-06-26T03:34:31.922Z,23.30
2019-06-26T03:36:58.634Z,23.40
2019-06-26T03:39:25.081Z,23.40
2019-06-26T03:41:51.547Z,23.40
2019-06-26T03:44:17.953Z,23.50
2019-06-26T03:46:44.359Z,23.40
2019-06-26T03:49:10.739Z,23.50
2019-06-26T03:51:37.202Z,23.50
2019-06-26T03:54:04.377Z,23.60
2019-06-26T03:56:30.959Z,23.50
2019-06-26T03:58:57.402Z,23.40
2019-06-26T04:01:23.908Z,23.30
2019-06-26T04:03:50.322Z,23.30
2019-06-26T04:06:16.749Z,23.40
2019-06-26T04:08:43.168Z,23.50
2019-06-26T04:11:09.901Z,23.50
2019-06-26T04:13:36.901Z,23.50
2019-06-26T04:16:03.659Z,23.50
2019-06-26T04:18:30.698Z,23.50
2019-06-26T04:20:57.703Z,23.50
2019-06-26T04:23:24.772Z,23.60
2019-06-26T04:25:51.842Z,23.50
2019-06-26T04:28:18.570Z,23.50
2019-06-26T04:30:46.718Z,23.50
2019-06-26T04:33:13.169Z,23.60
2019-06-26T04:35:39.771Z,23.40
2019-06-26T04:38:06.306Z,23.40
2019-06-26T04:40:32.792Z,23.50
2019-06-26T04:42:59.248Z,23.60
2019-06-26T04:45:25.684Z,23.50
2019-06-26T04:47:52.165Z,23.60
2019-06-26T04:50:20.341Z,23.50
2019-06-26T04:52:47.214Z,23.60
2019-06-26T04:55:14.236Z,23.60
2019-06-26T04:57:43.076Z,23.60
2019-06-26T05:00:11.841Z,23.50
2019-06-26T05:02:38.606Z,23.50
2019-06-26T05:05:06.603Z,23.40
2019-06-26T05:07:33.227Z,23.50
2019-06-26T05:09:59.916Z,23.40
2019-06-26T05:12:26.323Z,23.50
2019-06-26T05:14:52.979Z,23.30
2019-06-26T05:17:19.395Z,23.40
2019-06-26T05:19:45.782Z,23.50
2019-06-26T05:22:12.137Z,23.30
2019-06-26T05:24:38.564Z,23.30
2019-06-26T05:27:04.865Z,23.40
2019-06-26T05:29:31.230Z,23.40
2019-06-26T05:31:57.724Z,23.40
2019-06-26T05:34:24.118Z,23.40
2019-06-26T05:36:50.404Z,23.40
2019-06-26T05:39:16.696Z,23.40
2019-06-26T05:41:43.057Z,23.50
2019-06-26T05:44:09.617Z,23.40
2019-06-26T05:46:35.964Z,23.40
2019-06-26T05:49:02.790Z,23.40
2019-06-26T05:51:29.440Z,23.40
2019-06-26T05:53:55.743Z,23.30
2019-06-26T05:56:22.175Z,23.40
2019-06-26T05:58:48.496Z,23.30
2019-06-26T06:01:15.116Z,23.30
2019-06-26T06:03:41.506Z,23.30
2019-06-26T06:06:08.022Z,23.30
2019-06-26T06:08:34.405Z,23.40
2019-06-26T06:11:00.878Z,23.40
2019-06-26T06:13:27.524Z,23.40
2019-06-26T06:15:53.874Z,23.50
2019-06-26T06:18:22.215Z,23.50
2019-06-26T06:20:48.714Z,23.50
2019-06-26T06:23:15.124Z,23.50
2019-06-26T06:25:41.426Z,23.50
2019-06-26T06:28:07.760Z,23.20
2019-06-26T06:30:34.181Z,23.40
2019-06-26T06:33:00.861Z,23.30
2019-06-26T06:35:27.300Z,23.30
2019-06-26T06:37:53.563Z,23.40
2019-06-26T06:40:21.367Z,23.40
2019-06-26T06:42:47.725Z,23.40
2019-06-26T06:45:14.346Z,23.50
2019-06-26T06:47:40.683Z,23.40
2019-06-26T06:50:07.065Z,23.30
2019-06-26T06:52:33.505Z,23.30
2019-06-26T06:55:00.085Z,23.20
2019-06-26T06:57:26.556Z,23.20
2019-06-26T06:59:53.165Z,23.30
2019-06-26T07:02:19.886Z,23.30
2019-06-26T07:04:46.358Z,23.20
2019-06-26T07:07:12.812Z,23.40
2019-06-26T07:09:39.196Z,23.50
2019-06-26T07:12:05.737Z,23.50
2019-06-26T07:14:33.348Z,23.40
2019-06-26T07:17:01.494Z,23.50
2019-06-26T07:19:28.458Z,23.60
2019-06-26T07:21:54.808Z,23.50
2019-06-26T07:24:21.297Z,23.60
2019-06-26T07:26:47.696Z,23.50
2019-06-26T07:29:14.038Z,23.40
2019-06-26T07:31:40.507Z,23.40
2019-06-26T07:34:07.071Z,23.40
2019-06-26T07:36:35.511Z,23.50
2019-06-26T07:39:04.421Z,23.40
2019-06-26T07:41:32.464Z,23.50
2019-06-26T07:43:59.159Z,23.40
2019-06-26T07:46:25.445Z,23.50
2019-06-26T07:48:51.781Z,23.60
2019-06-26T07:51:18.114Z,23.60
2019-06-26T07:53:44.608Z,23.70
2019-06-26T07:56:12.971Z,23.70
2019-06-26T07:58:39.343Z,23.70
2019-06-26T08:01:05.675Z,23.80
2019-06-26T08:03:32.366Z,23.80
2019-06-26T08:05:58.967Z,23.80
2019-06-26T08:08:25.447Z,23.90
2019-06-26T08:10:51.727Z,24.00
2019-06-26T08:13:18.138Z,23.90
2019-06-26T08:15:44.468Z,24.00
2019-06-26T08:18:11.061Z,24.00
2019-06-26T08:20:51.960Z,24.00
2019-06-26T08:23:06.752Z,24.00
2019-06-26T08:25:33.369Z,24.00
2019-06-26T08:27:59.671Z,24.00
2019-06-26T08:30:26.236Z,24.00
2019-06-26T08:32:52.770Z,24.00
2019-06-26T08:35:19.157Z,24.00
2019-06-26T08:37:45.633Z,24.00
2019-06-26T08:40:13.524Z,24.10
2019-06-26T08:42:39.927Z,24.00
2019-06-26T08:45:08.079Z,24.10
2019-06-26T08:47:34.474Z,24.10
2019-06-26T08:50:00.867Z,24.10
2019-06-26T08:52:27.281Z,24.10
2019-06-26T08:54:53.645Z,24.20
2019-06-26T08:57:19.968Z,24.30
2019-06-26T08:59:46.319Z,24.30
2019-06-26T09:02:12.784Z,24.40
2019-06-26T09:04:39.597Z,24.40
2019-06-26T09:07:06.210Z,24.40
2019-06-26T09:09:32.663Z,24.30
2019-06-26T09:11:59.224Z,24.50
2019-06-26T09:14:25.821Z,24.60
2019-06-26T09:16:52.532Z,24.60
2019-06-26T09:19:19.326Z,24.70
2019-06-26T09:21:47.597Z,24.60
2019-06-26T09:24:14.182Z,24.70
2019-06-26T09:26:40.675Z,24.80
2019-06-26T09:29:07.183Z,24.90
2019-06-26T09:31:33.935Z,24.90
2019-06-26T09:34:00.505Z,25.10
2019-06-26T09:36:27.099Z,25.20
2019-06-26T09:38:55.640Z,25.30
2019-06-26T09:41:21.863Z,25.30
2019-06-26T09:43:48.262Z,25.40
2019-06-26T09:46:14.775Z,25.50
2019-06-26T09:48:52.097Z,25.40
2019-06-26T09:51:09.603Z,25.40
2019-06-26T09:53:47.056Z,25.30
2019-06-26T09:56:07.193Z,25.30
2019-06-26T09:58:33.657Z,25.30
2019-06-26T10:01:00.055Z,25.20
2019-06-26T10:03:26.557Z,25.30
2019-06-26T10:05:53.134Z,25.40
2019-06-26T10:08:19.740Z,25.40
2019-06-26T10:10:46.408Z,25.40
2019-06-26T10:13:12.930Z,25.60
2019-06-26T10:15:39.394Z,25.70
2019-06-26T10:18:08.139Z,25.90
2019-06-26T10:20:34.551Z,25.70
2019-06-26T10:23:02.869Z,25.60
2019-06-26T10:25:29.307Z,25.90
2019-06-26T10:27:56.104Z,25.80
2019-06-26T10:30:22.897Z,26.10
2019-06-26T10:32:49.538Z,26.30
2019-06-26T10:35:16.532Z,26.50
2019-06-26T10:37:43.199Z,26.70
2019-06-26T10:40:11.553Z,26.80
2019-06-26T10:43:01.916Z,26.80
2019-06-26T10:45:29.633Z,26.60
2019-06-26T10:47:58.827Z,26.40
2019-06-26T10:50:25.385Z,26.50
2019-06-26T10:52:51.720Z,26.50
2019-06-26T10:55:20.025Z,26.70
2019-06-26T10:57:46.461Z,26.90
2019-06-26T11:00:15.047Z,27.00
2019-06-26T11:02:41.673Z,26.90
2019-06-26T11:05:08.983Z,27.00
2019-06-26T11:07:36.689Z,27.10
2019-06-26T11:10:05.812Z,27.20
2019-06-26T11:12:32.199Z,27.30
2019-06-26T11:14:58.617Z,27.20
2019-06-26T11:17:24.918Z,27.30
2019-06-26T11:19:55.160Z,27.40
2019-06-26T11:22:19.713Z,27.50
2019-06-26T11:24:46.138Z,27.50
2019-06-26T11:27:12.668Z,27.60
2019-06-26T11:29:38.962Z,27.60
2019-06-26T11:32:09.296Z,27.80
2019-06-26T11:34:33.977Z,27.70
2019-06-26T11:37:04.313Z,27.80
2019-06-26T11:39:29.088Z,28.00
2019-06-26T11:41:55.498Z,28.00
2019-06-26T11:44:21.828Z,28.10
2019-06-26T11:46:48.568Z,28.10
2019-06-26T11:49:14.973Z,28.10
2019-06-26T11:51:41.414Z,28.20
2019-06-26T11:54:07.731Z,28.30
2019-06-26T11:56:34.982Z,28.20
2019-06-26T11:59:01.569Z,28.30
2019-06-26T12:01:27.891Z,28.40
2019-06-26T12:03:54.403Z,28.40
2019-06-26T12:06:20.880Z,28.50
2019-06-26T12:08:47.414Z,28.60
2019-06-26T12:11:14.215Z,28.60
2019-06-26T12:13:41.390Z,28.60
2019-06-26T12:16:07.812Z,28.70
2019-06-26T12:18:34.109Z,28.60
2019-06-26T12:21:00.503Z,28.70
2019-06-26T12:23:26.900Z,28.80
2019-06-26T12:25:53.309Z,28.90
2019-06-26T12:28:19.752Z,28.80
2019-06-26T12:30:46.065Z,28.80
2019-06-26T12:33:12.502Z,28.90
2019-06-26T12:35:38.962Z,28.80
2019-06-26T12:38:07.147Z,28.80
2019-06-26T12:40:33.631Z,28.80
2019-06-26T12:43:00.224Z,28.80
2019-06-26T12:45:26.655Z,28.80
2019-06-26T12:47:52.937Z,28.70
2019-06-26T12:50:34.891Z,28.80
2019-06-26T12:52:50.951Z,28.70
2019-06-26T12:55:17.596Z,28.80
2019-06-26T12:57:44.291Z,28.90
2019-06-26T13:00:11.832Z,29.10
2019-06-26T13:02:39.956Z,29.10
2019-06-26T13:05:06.856Z,29.10
2019-06-26T13:07:33.261Z,29.00
2019-06-26T13:09:59.968Z,28.90
2019-06-26T13:12:26.558Z,29.00
2019-06-26T13:14:53.902Z,29.00
2019-06-26T13:17:20.724Z,29.00
2019-06-26T13:19:47.328Z,29.00
2019-06-26T13:22:13.880Z,29.00
2019-06-26T13:24:43.817Z,29.00
2019-06-26T13:27:08.418Z,29.00
2019-06-26T13:29:34.718Z,29.00
2019-06-26T13:32:01.172Z,29.00
2019-06-26T13:34:27.545Z,28.90
2019-06-26T13:36:54.056Z,28.90
2019-06-26T13:39:20.724Z,29.00
2019-06-26T13:41:47.334Z,28.90
2019-06-26T13:44:13.877Z,29.10
2019-06-26T13:46:40.319Z,29.00
2019-06-26T13:49:06.803Z,29.00
2019-06-26T13:51:33.391Z,28.90
2019-06-26T13:53:59.822Z,28.60
2019-06-26T13:56:26.303Z,28.60
2019-06-26T13:58:52.859Z,28.70
2019-06-26T14:01:22.921Z,28.80
2019-06-26T14:03:47.838Z,28.90
2019-06-26T14:06:14.171Z,28.60
2019-06-26T14:08:40.541Z,28.60
2019-06-26T14:11:07.685Z,28.60
2019-06-26T14:13:34.091Z,28.70
2019-06-26T14:16:00.471Z,28.70
2019-06-26T14:18:30.302Z,28.60
2019-06-26T14:20:55.290Z,28.50
2019-06-26T14:23:21.897Z,28.50
2019-06-26T14:25:48.291Z,28.60
2019-06-26T14:28:14.664Z,28.40
2019-06-26T14:30:41.947Z,28.30
2019-06-26T14:33:08.305Z,28.50
2019-06-26T14:35:34.635Z,28.50
2019-06-26T14:38:20.796Z,28.50
2019-06-26T14:40:47.336Z,28.10
2019-06-26T14:43:14.425Z,28.20
2019-06-26T14:45:41.637Z,28.40
2019-06-26T14:48:08.740Z,28.40
2019-06-26T14:50:35.104Z,28.30
2019-06-26T14:53:01.694Z,28.40
2019-06-26T14:55:27.975Z,28.30
2019-06-26T14:57:54.405Z,28.40
2019-06-26T15:00:21.544Z,28.50
2019-06-26T15:02:48.215Z,28.30
2019-06-26T15:05:14.716Z,28.10
2019-06-26T15:07:41.241Z,27.90
2019-06-26T15:10:08.247Z,28.10
2019-06-26T15:12:34.744Z,28.20
2019-06-26T15:15:01.592Z,28.40
2019-06-26T15:17:31.029Z,28.40
2019-06-26T15:19:58.243Z,28.40
2019-06-26T15:22:25.836Z,28.50
2019-06-26T15:24:52.432Z,28.20
2019-06-26T15:27:19.486Z,27.80
2019-06-26T15:29:45.918Z,27.80
2019-06-26T15:32:14.192Z,28.00
2019-06-26T15:34:40.571Z,27.80
2019-06-26T15:37:09.635Z,27.90
2019-06-26T15:39:36.398Z,27.60
2019-06-26T15:42:02.935Z,27.60
2019-06-26T15:44:29.332Z,27.60
2019-06-26T15:46:55.744Z,27.60
2019-06-26T15:49:22.026Z,27.60
2019-06-26T15:51:48.741Z,27.60
2019-06-26T15:54:15.130Z,27.80
2019-06-26T15:56:41.478Z,27.70
2019-06-26T15:59:08.376Z,27.50
2019-06-26T16:01:35.016Z,27.40
2019-06-26T16:04:01.509Z,27.10
2019-06-26T16:06:27.979Z,27.10
2019-06-26T16:08:54.485Z,27.20
2019-06-26T16:11:22.221Z,27.10
2019-06-26T16:13:48.599Z,27.00
2019-06-26T16:16:16.803Z,26.90
2019-06-26T16:18:45.120Z,26.90
2019-06-26T16:21:11.670Z,27.10
2019-06-26T16:23:38.247Z,26.90
2019-06-26T16:26:05.133Z,27.00
2019-06-26T16:28:31.577Z,26.90
2019-06-26T16:30:58.616Z,27.00
2019-06-26T16:33:26.043Z,27.00
2019-06-26T16:35:52.621Z,26.90
2019-06-26T16:38:19.128Z,26.90
2019-06-26T16:40:45.568Z,26.70
2019-06-26T16:43:13.646Z,26.60
2019-06-26T16:45:40.026Z,26.50
2019-06-26T16:48:06.443Z,26.50
2019-06-26T16:50:32.913Z,26.40
2019-06-26T16:52:59.481Z,26.60
2019-06-26T16:55:25.893Z,26.70
2019-06-26T16:57:52.469Z,26.80
2019-06-26T17:00:20.131Z,26.80
2019-06-26T17:02:46.578Z,27.00
2019-06-26T17:05:13.285Z,26.90
2019-06-26T17:07:40.031Z,26.80
2019-06-26T17:10:06.972Z,26.80
2019-06-26T17:12:34.578Z,26.60
2019-06-26T17:15:04.138Z,26.60
2019-06-26T17:17:29.473Z,26.30
2019-06-26T17:19:56.044Z,26.20
2019-06-26T17:22:22.433Z,26.30
2019-06-26T17:24:48.773Z,26.20
2019-06-26T17:27:15.289Z,26.30
2019-06-26T17:29:41.737Z,26.40
2019-06-26T17:32:08.117Z,26.30
2019-06-26T17:34:34.835Z,26.20
2019-06-26T17:37:01.489Z,26.10
2019-06-26T17:39:28.155Z,26.00
2019-06-26T17:41:54.784Z,26.00
2019-06-26T17:44:21.203Z,26.00
2019-06-26T17:46:47.589Z,26.00
2019-06-26T17:49:14.024Z,26.00
2019-06-26T17:51:40.471Z,26.10
2019-06-26T17:54:07.085Z,26.10
2019-06-26T17:56:33.699Z,26.10
2019-06-26T17:59:02.396Z,26.00
2019-06-26T18:01:28.740Z,25.90
2019-06-26T18:03:55.243Z,25.90
2019-06-26T18:06:21.643Z,25.90
2019-06-26T18:08:48.168Z,26.00
2019-06-26T18:11:14.547Z,25.90
2019-06-26T18:13:40.977Z,25.90
2019-06-26T18:16:07.402Z,26.00
2019-06-26T18:18:33.842Z,26.00
2019-06-26T18:21:00.427Z,25.70
2019-06-26T18:23:37.265Z,25.70
2019-06-26T18:26:11.473Z,25.60
2019-06-26T18:28:24.873Z,25.30
2019-06-26T18:30:51.375Z,25.20
2019-06-26T18:33:18.553Z,25.30
2019-06-26T18:35:44.945Z,25.30
2019-06-26T18:38:11.812Z,25.20
2019-06-26T18:40:38.251Z,25.30
2019-06-26T18:43:04.545Z,25.50
2019-06-26T18:45:32.298Z,25.60
2019-06-26T18:47:58.907Z,25.60
2019-06-26T18:50:25.358Z,25.50
2019-06-26T18:52:51.786Z,25.30
2019-06-26T18:55:18.214Z,25.30
2019-06-26T18:57:44.653Z,25.40
2019-06-26T19:00:11.675Z,25.40
2019-06-26T19:02:40.510Z,25.50
2019-06-26T19:05:07.874Z,25.20
2019-06-26T19:07:34.303Z,25.20
2019-06-26T19:10:00.780Z,25.20
2019-06-26T19:12:27.368Z,24.90
2019-06-26T19:14:53.883Z,25.00
2019-06-26T19:17:22.838Z,25.10
2019-06-26T19:19:49.299Z,25.20
2019-06-26T19:22:17.293Z,25.10
2019-06-26T19:24:43.844Z,25.10
2019-06-26T19:27:10.196Z,25.10
2019-06-26T19:29:37.518Z,25.00
2019-06-26T19:32:04.133Z,24.70
2019-06-26T19:34:30.769Z,24.50
2019-06-26T19:36:57.158Z,24.50
2019-06-26T19:39:23.864Z,24.40
2019-06-26T19:41:50.511Z,24.40
2019-06-26T19:44:17.474Z,24.40
2019-06-26T19:46:43.997Z,24.30
2019-06-26T19:49:11.036Z,24.30
2019-06-26T19:51:38.829Z,24.20
2019-06-26T19:54:05.325Z,24.20
2019-06-26T19:56:31.801Z,24.20
2019-06-26T19:58:58.800Z,24.30
2019-06-26T20:01:25.399Z,24.10
2019-06-26T20:03:51.891Z,24.00
2019-06-26T20:06:18.413Z,24.00
2019-06-26T20:08:54.569Z,23.90
2019-06-26T20:11:14.322Z,23.80
2019-06-26T20:13:40.790Z,23.70
2019-06-26T20:16:07.369Z,23.60
2019-06-26T20:18:33.792Z,23.60
2019-06-26T20:21:00.216Z,23.60
2019-06-26T20:23:26.796Z,23.70
2019-06-26T20:25:53.209Z,23.40
2019-06-26T20:28:19.875Z,23.30
2019-06-26T20:30:46.256Z,23.50
2019-06-26T20:33:13.058Z,23.10
2019-06-26T20:35:39.555Z,23.10
2019-06-26T20:38:08.139Z,23.00
2019-06-26T20:40:40.102Z,23.10
2019-06-26T20:43:08.339Z,23.30
2019-06-26T20:45:34.999Z,23.10
2019-06-26T20:48:01.746Z,23.10
2019-06-26T20:50:28.736Z,23.00
2019-06-26T20:52:55.808Z,23.00
2019-06-26T20:55:22.810Z,22.90
2019-06-26T20:57:49.398Z,22.80
2019-06-26T21:00:16.216Z,23.00
2019-06-26T21:02:42.961Z,22.90
2019-06-26T21:05:10.955Z,22.70
2019-06-26T21:07:38.928Z,22.60
2019-06-26T21:10:06.051Z,22.80
2019-06-26T21:12:50.345Z,22.80
2019-06-26T21:15:18.320Z,22.90
2019-06-26T21:17:45.240Z,23.00
2019-06-26T21:20:14.765Z,22.90
2019-06-26T21:22:41.867Z,22.70
2019-06-26T21:25:18.185Z,22.70
2019-06-26T21:27:41.500Z,22.30
2019-06-26T21:30:09.074Z,22.50
2019-06-26T21:32:35.867Z,22.30
2019-06-26T21:35:04.376Z,22.50
2019-06-26T21:37:30.894Z,22.50
2019-06-26T21:39:57.427Z,22.40
2019-06-26T21:42:24.031Z,22.40
2019-06-26T21:44:50.591Z,22.30
2019-06-26T21:47:17.117Z,22.30
2019-06-26T21:49:43.554Z,22.50
2019-06-26T21:52:10.052Z,22.60
2019-06-26T21:54:36.539Z,22.70
2019-06-26T21:57:21.981Z,22.50
2019-06-26T22:00:16.324Z,22.20
2019-06-26T22:03:03.951Z,22.10
2019-06-26T22:05:32.638Z,22.20
2019-06-26T22:08:06.830Z,22.10
2019-06-26T22:10:38.079Z,22.20
2019-06-26T22:13:04.719Z,22.00
2019-06-26T22:15:31.691Z,22.00
2019-06-26T22:17:58.253Z,22.00
2019-06-26T22:20:24.871Z,22.10
2019-06-26T22:22:52.890Z,22.30
2019-06-26T22:25:19.631Z,22.20
2019-06-26T22:27:46.495Z,22.00
2019-06-26T22:30:13.619Z,22.20
2019-06-26T22:32:40.163Z,22.00
2019-06-26T22:35:07.646Z,21.90
2019-06-26T22:37:34.289Z,22.20
2019-06-26T22:40:00.907Z,22.00
2019-06-26T22:42:27.266Z,21.80
2019-06-26T22:44:53.795Z,22.00
2019-06-26T22:47:20.111Z,21.80
2019-06-26T22:49:46.580Z,21.60
2019-06-26T22:52:14.379Z,21.50
2019-06-26T22:54:40.679Z,21.70
2019-06-26T22:57:07.233Z,21.80
2019-06-26T22:59:33.686Z,21.90
2019-06-26T23:02:00.218Z,21.80
2019-06-26T23:04:26.827Z,21.80
2019-06-26T23:06:53.129Z,21.60
2019-06-26T23:09:19.531Z,21.70
2019-06-26T23:11:46.025Z,21.80
2019-06-26T23:14:12.836Z,21.80
2019-06-26T23:16:39.251Z,21.60
2019-06-26T23:19:05.634Z,21.60
2019-06-26T23:21:32.170Z,21.60
2019-06-26T23:23:58.596Z,21.60
2019-06-26T23:26:24.906Z,21.60
2019-06-26T23:28:51.299Z,21.60
2019-06-26T23:31:17.685Z,21.40
2019-06-26T23:33:44.119Z,21.50
2019-06-26T23:36:10.607Z,21.40
2019-06-26T23:38:37.258Z,21.40
2019-06-26T23:41:03.827Z,21.40
2019-06-26T23:43:30.299Z,21.30
2019-06-26T23:45:56.695Z,21.30
2019-06-26T23:48:23.153Z,21.20
2019-06-26T23:50:49.701Z,21.10
2019-06-26T23:53:15.995Z,21.10
2019-06-26T23:55:42.391Z,20.90
2019-06-26T23:58:08.753Z,21.00
